createdAt,value
2019-04-06T00:00:16.621Z,94034.14
2019-04-06T00:05:17.985Z,94035.58
2019-04-06T00:10:20.152Z,94031.95
2019-04-06T00:15:21.564Z,94023.92
2019-04-06T00:20:23.721Z,94028.30
2019-04-06T00:25:25.863Z,94027.39
2019-04-06T00:30:27.240Z,94022.77
2019-04-06T00:35:28.623Z,94020.72
2019-04-06T00:40:30.786Z,94025.00
2019-04-06T00:45:32.264Z,94024.66
2019-04-06T00:50:34.050Z,94030.80
2019-04-06T00:55:35.416Z,94034.27
2019-04-06T01:00:36.838Z,94031.60
2019-04-06T01:05:38.205Z,94032.76
2019-04-06T01:10:39.710Z,94024.38
2019-04-06T01:15:41.066Z,94033.80
2019-04-06T01:20:42.425Z,94034.44
2019-04-06T01:25:43.842Z,94035.19
2019-04-06T01:30:45.223Z,94026.80
2019-04-06T01:35:46.644Z,94017.96
2019-04-06T01:40:48.034Z,94015.59
2019-04-06T01:45:50.157Z,94011.32
2019-04-06T01:50:51.617Z,94012.02
2019-04-06T01:55:52.955Z,94003.40
2019-04-06T02:06:24.219Z,93996.75
2019-04-06T02:11:26.645Z,94006.93
2019-04-06T02:16:28.061Z,94008.59
2019-04-06T02:21:38.385Z,93997.80
2019-04-06T02:26:39.779Z,94005.95
2019-04-06T02:31:45.156Z,94006.63
2019-04-06T02:36:49.380Z,94009.36
2019-04-06T02:41:50.812Z,94000.64
2019-04-06T02:46:52.316Z,94005.31
2019-04-06T02:51:53.728Z,93994.00
2019-04-06T02:56:55.951Z,94003.06
2019-04-06T03:01:57.472Z,93995.31
2019-04-06T03:06:58.865Z,93991.80
2019-04-06T03:12:00.277Z,93990.16
2019-04-06T03:17:02.464Z,93994.79
2019-04-06T03:22:04.314Z,93985.48
2019-04-06T03:27:06.286Z,93989.48
2019-04-06T03:32:08.023Z,93985.60
2019-04-06T03:37:09.164Z,93982.48
2019-04-06T03:42:11.735Z,93980.64
2019-04-06T03:47:12.840Z,93987.22
2019-04-06T03:52:14.238Z,93984.44
2019-04-06T03:57:16.982Z,93986.98
2019-04-06T04:02:16.961Z,93985.94
2019-04-06T04:07:19.351Z,93990.11
2019-04-06T04:12:20.788Z,93984.05
2019-04-06T04:17:22.736Z,93989.41
2019-04-06T04:22:23.927Z,93986.77
2019-04-06T04:27:29.305Z,93988.73
2019-04-06T04:32:27.357Z,93989.92
2019-04-06T04:37:29.880Z,93998.71
2019-04-06T04:42:46.057Z,93997.29
2019-04-06T04:47:54.603Z,94012.31
2019-04-06T04:52:55.941Z,94010.80
2019-04-06T04:57:57.327Z,94014.95
2019-04-06T05:02:59.441Z,94012.36
2019-04-06T05:08:00.927Z,94016.93
2019-04-06T05:13:02.457Z,94016.30
2019-04-06T05:18:04.270Z,94017.61
2019-04-06T05:23:05.721Z,94025.20
2019-04-06T05:28:07.481Z,94028.67
2019-04-06T05:33:08.742Z,94030.27
2019-04-06T05:38:10.189Z,94031.51
2019-04-06T05:43:11.621Z,94032.89
2019-04-06T05:48:13.144Z,94034.51
2019-04-06T05:53:14.674Z,94040.23
2019-04-06T05:58:16.753Z,94047.44
2019-04-06T06:03:18.934Z,94048.09
2019-04-06T06:08:21.188Z,94056.30
2019-04-06T06:13:22.612Z,94052.66
2019-04-06T06:18:27.411Z,94049.52
2019-04-06T06:23:25.497Z,94045.25
2019-04-06T06:28:27.367Z,94045.46
2019-04-06T06:33:28.808Z,94042.89
2019-04-06T06:38:30.167Z,94037.00
2019-04-06T06:43:31.556Z,94047.72
2019-04-06T06:48:33.024Z,94047.80
2019-04-06T06:53:34.650Z,94045.02
2019-04-06T06:58:36.050Z,94048.94
2019-04-06T07:03:37.676Z,94047.55
2019-04-06T07:08:39.886Z,94044.84
2019-04-06T07:13:41.398Z,94049.77
2019-04-06T07:18:43.065Z,94050.06
2019-04-06T07:23:48.459Z,94049.77
2019-04-06T07:28:58.070Z,94049.52
2019-04-06T07:34:06.588Z,94051.72
2019-04-06T07:39:08.077Z,94048.56
2019-04-06T07:44:09.531Z,94043.73
2019-04-06T07:49:11.152Z,94044.50
2019-04-06T07:54:12.682Z,94037.20
2019-04-06T07:59:14.034Z,94038.73
2019-04-06T08:04:15.677Z,94033.91
2019-04-06T08:09:17.093Z,94032.97
2019-04-06T08:14:18.690Z,94036.44
2019-04-06T08:19:20.081Z,94037.73
2019-04-06T08:24:21.526Z,94029.53
2019-04-06T08:29:23.027Z,94029.45
2019-04-06T08:34:24.580Z,94019.88
2019-04-06T08:39:26.350Z,94017.42
2019-04-06T08:44:27.971Z,94020.10
2019-04-06T08:49:29.426Z,94017.05
2019-04-06T08:54:30.868Z,94014.86
2019-04-06T08:59:32.520Z,94014.88
2019-04-06T09:04:33.708Z,94011.73
2019-04-06T09:09:35.146Z,94011.73
2019-04-06T09:14:45.781Z,93996.95
2019-04-06T09:19:47.345Z,93995.00
2019-04-06T09:24:48.850Z,93990.52
2019-04-06T09:29:51.066Z,93988.16
2019-04-06T09:34:52.528Z,93978.80
2019-04-06T09:39:54.739Z,93974.23
2019-04-06T09:44:57.180Z,93963.02
2019-04-06T09:50:03.382Z,93960.72
2019-04-06T09:55:06.555Z,93953.41
2019-04-06T10:00:14.128Z,93958.16
2019-04-06T10:05:15.482Z,93959.78
2019-04-06T10:10:18.694Z,93938.75
2019-04-06T10:15:26.344Z,93935.71
2019-04-06T10:20:32.553Z,93941.98
2019-04-06T10:25:40.770Z,93935.32
2019-04-06T10:36:14.681Z,93919.57
2019-04-06T10:41:36.549Z,93910.70
2019-04-06T10:46:39.757Z,93907.20
2019-04-06T10:51:47.178Z,93895.40
2019-04-06T10:56:50.470Z,93889.98
2019-04-06T11:02:02.768Z,93882.73
2019-04-06T11:07:10.319Z,93884.45
2019-04-06T11:12:14.610Z,93873.50
2019-04-06T11:22:43.612Z,93867.45
2019-04-06T11:27:50.949Z,93852.28
2019-04-06T11:32:58.692Z,93854.38
2019-04-06T11:38:00.851Z,93866.28
2019-04-06T11:48:35.114Z,93844.39
2019-04-06T11:53:37.993Z,93834.52
2019-04-06T11:58:40.397Z,93843.11
2019-04-06T12:03:46.075Z,93835.86
2019-04-06T12:08:47.617Z,93845.85
2019-04-06T12:13:50.981Z,93843.36
2019-04-06T12:24:35.057Z,93834.48
2019-04-06T12:35:13.361Z,93831.69
2019-04-06T12:40:16.862Z,93839.25
2019-04-06T12:45:22.103Z,93828.02
2019-04-06T12:50:29.666Z,93818.87
2019-04-06T13:01:14.614Z,93825.14
2019-04-06T13:06:23.243Z,93820.75
2019-04-06T13:11:30.784Z,93822.16
2019-04-06T13:16:33.307Z,93822.02
2019-04-06T13:21:46.178Z,93813.18
2019-04-06T13:26:48.469Z,93805.00
2019-04-06T13:37:40.556Z,93796.66
2019-04-06T13:48:14.925Z,93783.62
2019-04-06T13:53:18.046Z,93784.13
2019-04-06T13:58:23.491Z,93777.53
2019-04-06T14:09:12.607Z,93780.89
2019-04-06T14:14:19.913Z,93780.16
2019-04-06T14:19:24.962Z,93789.64
2019-04-06T14:24:30.850Z,93787.40
2019-04-06T14:35:31.165Z,93783.05
2019-04-06T14:40:35.700Z,93777.97
2019-04-06T14:45:36.748Z,93779.75
2019-04-06T14:50:38.434Z,93782.17
2019-04-06T14:55:52.419Z,93780.69
2019-04-06T15:06:37.497Z,93780.56
2019-04-06T15:11:38.956Z,93782.56
2019-04-06T15:22:12.546Z,93783.91
2019-04-06T15:27:20.965Z,93777.70
2019-04-06T15:32:26.123Z,93772.21
2019-04-06T15:37:28.403Z,93773.83
2019-04-06T15:53:41.257Z,93771.45
2019-04-06T15:58:42.613Z,93762.52
2019-04-06T16:04:00.268Z,93760.95
2019-04-06T16:09:03.053Z,93764.86
2019-04-06T16:14:05.146Z,93773.83
2019-04-06T16:19:09.386Z,93764.15
2019-04-06T16:24:10.740Z,93766.66
2019-04-06T16:29:13.898Z,93766.28
2019-04-06T16:34:23.412Z,93772.33
2019-04-06T16:44:59.336Z,93771.27
2019-04-06T16:50:00.646Z,93771.83
2019-04-06T16:55:05.735Z,93774.30
2019-04-06T17:00:18.495Z,93773.49
2019-04-06T17:05:12.277Z,93770.19
2019-04-06T17:10:17.008Z,93768.41
2019-04-06T17:15:37.059Z,93771.94
2019-04-06T17:20:54.255Z,93773.66
2019-04-06T17:25:55.762Z,93769.22
2019-04-06T17:30:58.892Z,93764.27
2019-04-06T17:41:32.928Z,93784.38
2019-04-06T17:52:12.153Z,93780.08
2019-04-06T17:57:20.311Z,93783.33
2019-04-06T18:02:23.499Z,93782.08
2019-04-06T18:07:27.771Z,93791.05
2019-04-06T18:12:35.479Z,93789.51
2019-04-06T18:17:36.801Z,93791.34
2019-04-06T18:22:39.124Z,93809.02
2019-04-06T18:27:40.193Z,93805.39
2019-04-06T18:32:42.490Z,93815.37
2019-04-06T18:37:54.626Z,93826.16
2019-04-06T18:42:55.778Z,93829.51
2019-04-06T18:47:58.936Z,93826.00
2019-04-06T18:53:00.249Z,93834.56
2019-04-06T18:58:10.361Z,93833.31
2019-04-06T19:03:15.130Z,93834.15
2019-04-06T19:08:13.193Z,93843.23
2019-04-06T19:13:23.175Z,93842.59
2019-04-06T19:18:24.260Z,93848.30
2019-04-06T19:23:25.549Z,93846.53
2019-04-06T19:28:26.901Z,93842.87
2019-04-06T19:33:28.369Z,93829.53
2019-04-06T19:38:29.976Z,93829.32
2019-04-06T19:43:31.040Z,93825.70
2019-04-06T19:48:32.379Z,93818.30
2019-04-06T19:53:34.594Z,93810.10
2019-04-06T19:58:37.063Z,93796.30
2019-04-06T20:03:39.388Z,93795.94
2019-04-06T20:08:39.888Z,93798.49
2019-04-06T20:13:42.362Z,93794.32
2019-04-06T20:18:43.475Z,93799.30
2019-04-06T20:23:44.885Z,93802.23
2019-04-06T20:28:46.862Z,93791.38
2019-04-06T20:33:51.575Z,93793.39
2019-04-06T20:38:49.127Z,93785.81
2019-04-06T20:43:50.725Z,93793.12
2019-04-06T20:48:52.564Z,93793.23
2019-04-06T20:53:55.142Z,93792.17
2019-04-06T20:58:56.494Z,93792.53
2019-04-06T21:04:00.863Z,93798.03
2019-04-06T21:08:58.681Z,93785.53
2019-04-06T21:14:00.003Z,93784.46
2019-04-06T21:19:02.518Z,93788.35
2019-04-06T21:24:04.690Z,93780.55
2019-04-06T21:29:06.326Z,93788.17
2019-04-06T21:34:12.019Z,93796.03
2019-04-06T21:39:08.480Z,93792.23
2019-04-06T21:44:10.068Z,93791.13
2019-04-06T21:49:12.264Z,93782.55
2019-04-06T21:54:13.949Z,93787.30
2019-04-06T21:59:16.728Z,93781.09
2019-04-06T22:04:23.736Z,93783.36
2019-04-06T22:09:18.906Z,93782.42
2019-04-06T22:14:20.963Z,93783.86
2019-04-06T22:19:22.508Z,93787.59
2019-04-06T22:24:23.966Z,93776.95
2019-04-06T22:29:25.062Z,93776.10
2019-04-06T22:34:36.409Z,93776.92
2019-04-06T22:39:28.324Z,93777.44
2019-04-06T22:44:29.132Z,93781.87
2019-04-06T22:49:30.649Z,93779.20
2019-04-06T22:54:32.262Z,93775.95
2019-04-06T22:59:33.640Z,93777.45
2019-04-06T23:04:48.491Z,93782.20
2019-04-06T23:09:44.037Z,93781.80
2019-04-06T23:14:45.484Z,93770.39
2019-04-06T23:19:46.890Z,93774.75
2019-04-06T23:24:56.812Z,93780.59
2019-04-06T23:29:58.767Z,93771.89
2019-04-06T23:35:01.976Z,93764.52
2019-04-06T23:40:00.923Z,93769.02
2019-04-06T23:45:02.509Z,93763.72
2019-04-06T23:50:03.651Z,93763.14
2019-04-06T23:55:05.065Z,93764.89
